Flood watches and warnings may be in place at some locations. For the latest rainfall, river conditions, flood watches and warnings see BoM.

Forecasts are only available for sites displaying the forecast symbol.

Some water levels are actually in metres AHD (Australian Height Datum), click individual sites for more details.

Scroll for more >

River gauges, storages, and weirs in the Murray–Darling Basin

Type Locationsort descending River Water level Flow Volume Release Water temp Salinity Rainfall
River Gauge Albury (Union Bridge) Murray 3.97 m 17/08/2022 23:00 Not measured Not measured Not measured 10.6°C 17/08/2022 23:00 59.8 μS/cm 17/08/2022 23:00 Not measured Full data
River Gauge Balranald Murrumbidgee 6.12 m 17/08/2022 22:00 12047 ML/Day 17/08/2022 22:00 Not measured Not measured 11.9°C 17/08/2022 22:00 139.5 μS/cm 17/08/2022 22:00 Not measured Full data
River Gauge Bandiana Kiewa 2.87 m 17/08/2022 22:00 4592 ML/Day 17/08/2022 22:00 Not measured Not measured 9.6°C 17/08/2022 22:00 48.7 μS/cm 17/08/2022 22:00 Not measured Full data
River Gauge Barmah Murray 3.71 m 17/08/2022 22:00 13112 ML/Day 17/08/2022 22:00 Not measured Not measured Not measured Not measured Not measured Full data
River Gauge Biggara Murray 1.31 m 17/08/2022 23:00 3788 ML/Day 17/08/2022 23:00 Not measured Not measured 9.5°C 17/08/2022 23:00 17.4 μS/cm 17/08/2022 8:00 0.00 mm 17/08/2022 23:00 Full data
River Gauge Bringenbrong Bridge Murray 2.3 m 17/08/2022 22:00 10124 ML/Day 17/08/2022 22:00 Not measured Not measured Not measured Not measured Not measured Full data
River Gauge Burtundy Darling 6.69 m 17/08/2022 22:00 16561 ML/Day 17/08/2022 22:00 Not measured Not measured 12.7°C 17/08/2022 22:00 206.9 μS/cm 17/08/2022 8:00 Not measured Full data
River Gauge Colemans Mitta 2.46 m 17/08/2022 22:00 6711 ML/Day 17/08/2022 22:00 Not measured Not measured 9.2°C 17/08/2022 22:00 57.7 μS/cm 17/08/2022 22:00 Not measured Full data
River Gauge Colemans Mitta 2.46 m 17/08/2022 22:00 6711 ML/Day 17/08/2022 22:00 Not measured Not measured 9.2°C 17/08/2022 22:00 57.7 μS/cm 17/08/2022 22:00 Not measured Full data
River Gauge Colignan Murray 4.92 m 17/08/2022 22:00 31990 ML/Day 17/08/2022 22:00 Not measured Not measured 11.8°C 17/08/2022 22:00 131.5 μS/cm 17/08/2022 22:00 Not measured Full data
River Gauge Corowa Murray 5.41 m 17/08/2022 23:00 39767 ML/Day 17/08/2022 23:00 Not measured Not measured 10.6°C 17/08/2022 23:00 59.3 μS/cm 17/08/2022 23:00 Not measured Full data
Storage Dartmouth Dam Mitta 484.67 m 17/08/2022 22:00 Not measured 3769 GL 17/08/2022 22:00 Not measured Not measured Not measured Not measured Full data
Storage Dartmouth Dam Mitta 484.67 m 17/08/2022 22:00 Not measured 3769 GL 17/08/2022 22:00 Not measured Not measured Not measured Not measured Full data
River Gauge Doctors Point Murray 4.8 m 17/08/2022 23:00 39740 ML/Day 17/08/2022 23:00 Not measured Not measured 10.6°C 17/08/2022 23:00 47.8 μS/cm 17/08/2022 23:00 Not measured Full data
River Gauge Echuca Wharf Murray 88.18 m 17/08/2022 8:00 Not measured Not measured Not measured Not measured Not measured Not measured Full data
River Gauge Edward Escape Wakool 0.02 m 17/08/2022 22:00 0.00 ML/Day 17/08/2022 22:00 Not measured Not measured 12°C 17/08/2022 22:00 62 μS/cm 17/08/2022 8:00 Not measured Full data
River Gauge Edward River Offtake Murray 2.81 m 17/08/2022 23:00 2252 ML/Day 17/08/2022 23:00 Not measured Not measured 11.2°C 17/08/2022 22:00 54.3 μS/cm 17/08/2022 8:00 Not measured Full data
Weirs Euston Weir Downstream Murray 46.27 m 17/08/2022 22:00 30736 ML/Day 17/08/2022 22:00 Not measured Not measured 11.4°C 17/08/2022 22:00 108.9 μS/cm 17/08/2022 22:00 Not measured Full data
Weirs Euston Weir Upstream Murray 47.2 m 17/08/2022 9:00 Not measured 32 GL 17/08/2022 8:00 Not measured Not measured Not measured 145.9 mm 5/03/2020 9:00 Full data
River Gauge Flow to South Australia Murray Not measured Not measured Not measured 53582 ML/d17/08/2022 8:00 Not measured Not measured Not measured Full data
River Gauge Frenchman Creek Murray 27.98 m 17/08/2022 8:00 Not measured Not measured 1053 ML/d17/08/2022 8:00 Not measured Not measured Not measured Full data
River Gauge Gulpa Creek Offtake Murray 3.24 m 17/08/2022 22:00 946 ML/Day 17/08/2022 22:00 Not measured Not measured Not measured Not measured Not measured Full data
River Gauge Hinnomunjie Mitta 1.28 m 17/08/2022 22:00 2463 ML/Day 17/08/2022 22:00 Not measured Not measured 7.3°C 17/08/2022 22:00 36.7 μS/cm 17/08/2022 22:00 0.00 mm 17/08/2022 22:00 Full data
Storage Hume Dam Murray 191.38 m 17/08/2022 23:00 Not measured 2881 GL 17/08/2022 23:00 35414.4 ML/d17/08/2022 23:00 Not measured Not measured 0.00 mm 17/08/2022 23:00 Full data
River Gauge Jingellic Murray 3.13 m 17/08/2022 22:00 17896 ML/Day 17/08/2022 22:00 Not measured Not measured 9.7°C 17/08/2022 22:00 50.8 μS/cm 17/08/2022 22:00 0.00 mm 17/08/2022 22:00 Full data
River Gauge Kerang Loddon 0.41 m 17/08/2022 22:00 280 ML/Day 17/08/2022 22:00 Not measured Not measured 11.8°C 17/08/2022 22:00 155.7 μS/cm 17/08/2022 22:00 Not measured Full data
River Gauge Lake Albert Murray 0.91 m 17/08/2022 23:00 Not measured 294 GL 16/08/2022 8:00 Not measured Not measured Not measured Not measured Full data
River Gauge Lake Alexandrina Murray 0.88 m 17/08/2022 23:00 Not measured 1698 GL 17/08/2022 23:00 Not measured Not measured 370.8 μS/cm 17/08/2022 21:00 Not measured Full data
Storage Lake Victoria Murray 24.43 m 17/08/2022 21:00 Not measured 388 GL 17/08/2022 21:00 Not measured 11.7°C 17/08/2022 21:00 185.8 μS/cm 17/08/2022 21:00 Not measured Full data
Weirs Lock 1 Downstream Murray 2.96 m 17/08/2022 21:00 Not measured Not measured 44570.8 ML/d17/08/2022 8:00 Not measured Not measured Not measured Full data
Weirs Lock 1 Upstream Murray 3.3 m 17/08/2022 21:00 Not measured Not measured Not measured 12.2°C 17/08/2022 21:00 190.7 μS/cm 17/08/2022 21:00 Not measured Full data
Weirs Lock 2 Downstream Murray 6.43 m 17/08/2022 21:00 Not measured Not measured Not measured Not measured Not measured Not measured Full data
Weirs Lock 2 Upstream Murray 6.69 m 17/08/2022 21:00 Not measured Not measured Not measured 12°C 17/08/2022 21:00 201.3 μS/cm 17/08/2022 21:00 Not measured Full data
Weirs Lock 3 Downstream Murray 9.21 m 17/08/2022 21:00 Not measured Not measured Not measured Not measured Not measured Not measured Full data
Weirs Lock 3 Upstream Murray 10.02 m 17/08/2022 21:00 Not measured Not measured Not measured Not measured Not measured Not measured Full data
Weirs Lock 4 Downstream Murray 13.57 m 17/08/2022 21:00 Not measured Not measured Not measured Not measured Not measured Not measured Full data
Weirs Lock 4 Upstream Murray 13.64 m 17/08/2022 21:00 Not measured Not measured Not measured Not measured Not measured Not measured Full data
Weirs Lock 5 Downstream Murray 15.75 m 17/08/2022 21:00 Not measured Not measured Not measured Not measured Not measured Not measured Full data
Weirs Lock 5 Upstream Murray 16.79 m 17/08/2022 21:00 Not measured Not measured Not measured 12.1°C 17/08/2022 21:00 186.1 μS/cm 17/08/2022 21:00 Not measured Full data
Weirs Lock 6 Downstream Murray 19.18 m 17/08/2022 21:00 Not measured Not measured Not measured Not measured Not measured Not measured Full data
Weirs Lock 6 Upstream Murray 19.55 m 17/08/2022 21:00 Not measured Not measured Not measured 12.2°C 17/08/2022 21:00 182.7 μS/cm 17/08/2022 21:00 Not measured Full data
Weirs Lock 7 Downstream Murray 23.59 m 29/06/2022 13:00 Not measured Not measured Not measured Not measured Not measured Not measured Full data
Weirs Lock 7 Upstream Murray 24.04 m 17/08/2022 21:00 Not measured Not measured Not measured 12.2°C 17/08/2022 21:00 177 μS/cm 17/08/2022 21:00 Not measured Full data
Weirs Lock 8 Upstream Murray 25.62 m 17/08/2022 21:00 Not measured Not measured Not measured 12.2°C 17/08/2022 21:00 167.6 μS/cm 17/08/2022 21:00 Not measured Full data
Weirs Lock 9 Downstream Murray 27.36 m 17/08/2022 21:00 Not measured Not measured Not measured Not measured Not measured Not measured Full data
Weirs Lock 9 Upstream Murray 27.43 m 17/08/2022 21:00 Not measured Not measured Not measured 12.3°C 17/08/2022 21:00 174 μS/cm 17/08/2022 21:00 Not measured Full data
River Gauge McCoy Bridge Goulburn 3.32 m 17/08/2022 22:00 4498 ML/Day 17/08/2022 22:00 Not measured Not measured 10.7°C 17/08/2022 22:00 148.4 μS/cm 17/08/2022 22:00 Not measured Full data
Storage Menindee Lakes Darling Not measured Not measured 1986 GL 17/08/2022 9:00 Not measured Not measured Not measured Not measured Full data
Weirs Mildura Weir downstream Murray 32.6 m 17/08/2022 22:00 Not measured Not measured Not measured 11.6°C 17/08/2022 22:00 104.6 μS/cm 17/08/2022 22:00 Not measured Full data
River Gauge Morgan Downstream Murray Not measured Not measured Not measured 39350.4 ML/d21/07/2022 10:00 Not measured 197.5 μS/cm 17/08/2022 20:00 Not measured Full data
River Gauge Mulwala Canal Murray Not measured Not measured Not measured 2943.8 ML/d17/08/2022 9:00 Not measured Not measured Not measured Full data
River Gauge Mundoo Barrage Murray 0.81 m 17/08/2022 8:00 Not measured Not measured Not measured Not measured Not measured Not measured Full data
River Gauge Murray Bridge Murray 0.83 m 17/08/2022 21:00 Not measured Not measured Not measured 12.2°C 17/08/2022 21:00 193.5 μS/cm 17/08/2022 21:00 Not measured Full data
River Gauge Peechelba Ovens 129.94 m 17/08/2022 22:00 13590 ML/Day 17/08/2022 22:00 Not measured Not measured 9.7°C 17/08/2022 22:00 45.9 μS/cm 17/08/2022 22:00 Not measured Full data
River Gauge Pinegrove Murray 2.44 m 17/08/2022 23:00 2956 ML/Day 17/08/2022 23:00 Not measured Not measured 9.7°C 17/08/2022 23:00 55.9 μS/cm 17/08/2022 23:00 0.00 mm 17/08/2022 23:00 Full data
River Gauge Redcliffs Murray Not measured Not measured Not measured Not measured Not measured 107.8 μS/cm 17/08/2022 8:00 Not measured Full data
River Gauge Rochester Campaspe 2.02 m 17/08/2022 22:00 278 ML/Day 17/08/2022 22:00 Not measured Not measured 10.5°C 17/08/2022 22:00 566.3 μS/cm 17/08/2022 22:00 0.00 mm 17/08/2022 22:00 Full data
River Gauge Rufus River Murray 23.98 m 17/08/2022 8:00 Not measured Not measured 2576.7 ML/d17/08/2022 8:00 Not measured 206 μS/cm 17/08/2022 20:00 Not measured Full data
Weirs Steven's Weir Downstream Edward 4.11 m 17/08/2022 22:00 6882 ML/Day 17/08/2022 22:00 Not measured Not measured 11°C 17/08/2022 22:00 60.3 μS/cm 17/08/2022 8:00 Not measured Full data
Weirs Steven's Weir Upstream Edward 4.57 m 17/08/2022 23:00 Not measured Not measured Not measured Not measured Not measured Not measured Full data
River Gauge Stoney Crossing Murray 2.09 m 17/08/2022 22:00 2328 ML/Day 17/08/2022 8:00 Not measured 976.2 ML/d14/01/2022 7:45 12°C 17/08/2022 22:00 69 μS/cm 17/08/2022 22:00 Not measured Full data
River Gauge Swan Hill Murray 2.44 m 17/08/2022 22:00 14146 ML/Day 17/08/2022 22:00 Not measured Not measured 11°C 17/08/2022 22:00 85.7 μS/cm 17/08/2022 22:00 Not measured Full data
River Gauge Tallandoon Mitta 3.3 m 17/08/2022 22:00 9345 ML/Day 17/08/2022 22:00 Not measured Not measured 9.8°C 17/08/2022 22:00 46.8 μS/cm 17/08/2022 22:00 Not measured Full data
River Gauge Tallandoon Mitta 3.3 m 17/08/2022 22:00 9345 ML/Day 17/08/2022 22:00 Not measured Not measured 9.8°C 17/08/2022 22:00 46.8 μS/cm 17/08/2022 22:00 Not measured Full data
River Gauge Tauwitchere Barrage Murray 0.85 m 17/08/2022 21:00 Not measured Not measured Not measured Not measured Not measured Not measured Full data
River Gauge Tocumwal Murray 5.3 m 17/08/2022 22:00 41346 ML/Day 17/08/2022 22:00 Not measured Not measured 10.7°C 17/08/2022 22:00 44.3 μS/cm 17/08/2022 22:00 Not measured Full data
River Gauge Torrumbarry Headworks Murray 85.95 m 17/08/2022 22:00 Not measured Not measured 2138.7 ML/d17/08/2022 21:00 Not measured Not measured Not measured Full data
Weirs Torrumbarry Weir Downstream Murray 4.12 m 17/08/2022 22:00 13972 ML/Day 17/08/2022 22:00 Not measured Not measured 11.1°C 17/08/2022 22:00 80.3 μS/cm 17/08/2022 22:00 Not measured Full data
Weirs Torrumbarry Weir Upstream Murray 85.81 m 17/08/2022 22:00 Not measured 35 GL 17/08/2022 9:00 Not measured 11°C 17/08/2022 9:00 79.9 μS/cm 17/08/2022 21:00 0.00 mm 17/08/2022 9:00 Full data
River Gauge Wakool Canal Wakool 0.44 m 17/08/2022 23:00 Not measured Not measured 100 ML/d17/08/2022 9:00 Not measured Not measured Not measured Full data
River Gauge Wakool Junction Murray 5.56 m 17/08/2022 22:00 19436 ML/Day 17/08/2022 22:00 Not measured Not measured 11.2°C 17/08/2022 22:00 77.2 μS/cm 17/08/2022 22:00 Not measured Full data
River Gauge Weir 32 Upstream Darling 6.5 m 17/08/2022 22:00 21696 ML/Day 17/08/2022 22:00 Not measured Not measured 13.3°C 17/08/2022 22:00 340.2 μS/cm 17/08/2022 22:00 Not measured Full data
Weirs Wentworth Weir Murray 30.53 m 17/08/2022 23:00 Not measured Not measured 51415.9 ML/d17/08/2022 9:00 Not measured 136.0 μS/cm 28/09/2021 7:45 Not measured Full data
River Gauge Wilcania Darling 7.82 m 17/08/2022 22:00 21292 ML/Day 17/08/2022 22:00 Not measured Not measured 13.9°C 17/08/2022 22:00 356.2 μS/cm 17/08/2022 8:00 Not measured Full data
River Gauge Yarrawonga Main Channel Murray 123.05 m 17/08/2022 22:00 Not measured Not measured 340.3 ML/d17/08/2022 22:00 Not measured Not measured Not measured Full data
Weirs Yarrawonga Weir Downstream Murray 4.95 m 17/08/2022 23:00 48036 ML/Day 17/08/2022 23:00 Not measured Not measured 10.7°C 17/08/2022 23:00 64.6 μS/cm 17/08/2022 8:00 Not measured Full data
Weirs Yarrawonga Weir Upstream Murray 124.71 m 17/08/2022 22:00 Not measured Not measured Not measured Not measured Not measured 0.00 mm 17/08/2022 22:00 Full data